createdAt,value
2023-03-06T00:00:03.000Z,-0.71
2023-03-06T00:05:03.000Z,-0.71
2023-03-06T00:10:03.000Z,-0.70
2023-03-06T00:15:03.000Z,-0.68
2023-03-06T00:20:03.000Z,-0.74
2023-03-06T00:25:04.000Z,-0.69
2023-03-06T00:30:03.000Z,-0.80
2023-03-06T00:35:03.000Z,-0.85
2023-03-06T00:40:03.000Z,-0.88
2023-03-06T00:45:03.000Z,-0.89
2023-03-06T00:50:03.000Z,-0.87
2023-03-06T00:55:03.000Z,-0.93
2023-03-06T01:00:03.000Z,-0.90
2023-03-06T01:05:03.000Z,-0.93
2023-03-06T01:10:03.000Z,-0.91
2023-03-06T01:15:03.000Z,-0.89
2023-03-06T01:20:03.000Z,-0.95
2023-03-06T01:25:03.000Z,-0.94
2023-03-06T01:30:03.000Z,-0.95
2023-03-06T01:35:03.000Z,-0.96
2023-03-06T01:40:03.000Z,-0.97
2023-03-06T01:45:03.000Z,-1.00
2023-03-06T01:50:03.000Z,-0.98
2023-03-06T01:55:03.000Z,-1.04
2023-03-06T02:00:03.000Z,-1.02
2023-03-06T02:05:03.000Z,-1.04
2023-03-06T02:10:03.000Z,-1.00
2023-03-06T02:15:03.000Z,-1.05
2023-03-06T02:20:03.000Z,-1.09
2023-03-06T02:25:03.000Z,-0.98
2023-03-06T02:30:03.000Z,-0.98
2023-03-06T02:35:03.000Z,-1.04
2023-03-06T02:40:03.000Z,-1.10
2023-03-06T02:45:03.000Z,-1.13
2023-03-06T02:50:03.000Z,-1.20
2023-03-06T02:55:04.000Z,-1.12
2023-03-06T03:00:03.000Z,-1.20
2023-03-06T03:05:03.000Z,-1.18
2023-03-06T03:10:03.000Z,-1.20
2023-03-06T03:15:03.000Z,-1.25
2023-03-06T03:20:03.000Z,-1.18
2023-03-06T03:25:03.000Z,-1.20
2023-03-06T03:30:03.000Z,-1.23
2023-03-06T03:35:03.000Z,-1.27
2023-03-06T03:40:03.000Z,-1.27
2023-03-06T03:45:03.000Z,-1.30
2023-03-06T03:50:03.000Z,-1.30
2023-03-06T03:55:03.000Z,-1.31
2023-03-06T04:00:03.000Z,-1.30
2023-03-06T04:05:03.000Z,-1.26
2023-03-06T04:10:03.000Z,-1.27
2023-03-06T04:15:03.000Z,-1.27
2023-03-06T04:20:03.000Z,-1.28
2023-03-06T04:25:03.000Z,-1.27
2023-03-06T04:30:03.000Z,-1.23
2023-03-06T04:35:03.000Z,-1.20
2023-03-06T04:40:03.000Z,-1.13
2023-03-06T04:45:03.000Z,-1.01
2023-03-06T04:50:03.000Z,-0.89
2023-03-06T04:55:03.000Z,-0.91
2023-03-06T05:00:03.000Z,-0.95
2023-03-06T05:05:03.000Z,-1.00
2023-03-06T05:10:03.000Z,-0.97
2023-03-06T05:15:03.000Z,-0.98
2023-03-06T05:20:03.000Z,-0.96
2023-03-06T05:25:03.000Z,-0.91
2023-03-06T05:30:03.000Z,-0.85
2023-03-06T05:35:03.000Z,-0.82
2023-03-06T05:40:03.000Z,-0.77
2023-03-06T05:45:03.000Z,-0.80
2023-03-06T05:50:03.000Z,-0.76
2023-03-06T05:55:03.000Z,-0.68
2023-03-06T06:00:03.000Z,-0.68
2023-03-06T06:05:03.000Z,-0.55
2023-03-06T06:10:03.000Z,-0.55
2023-03-06T06:15:03.000Z,-0.46
2023-03-06T06:20:03.000Z,-0.38
2023-03-06T06:25:03.000Z,-0.31
2023-03-06T06:30:03.000Z,-0.23
2023-03-06T06:35:03.000Z,-0.09
2023-03-06T06:40:03.000Z,0.06
2023-03-06T06:45:03.000Z,0.10
2023-03-06T06:50:03.000Z,0.21
2023-03-06T06:55:03.000Z,0.33
2023-03-06T07:00:03.000Z,0.37
2023-03-06T07:05:03.000Z,0.38
2023-03-06T07:10:03.000Z,0.48
2023-03-06T07:15:03.000Z,0.58
2023-03-06T07:20:03.000Z,0.74
2023-03-06T07:25:03.000Z,0.83
2023-03-06T07:30:03.000Z,0.88
2023-03-06T07:35:03.000Z,0.89
2023-03-06T07:40:03.000Z,0.98
2023-03-06T07:45:03.000Z,1.03
2023-03-06T07:50:03.000Z,1.16
2023-03-06T07:55:03.000Z,1.25
2023-03-06T08:00:03.000Z,1.36
2023-03-06T08:05:03.000Z,1.47
2023-03-06T08:10:03.000Z,1.61
2023-03-06T08:15:03.000Z,1.77
2023-03-06T08:20:03.000Z,1.91
2023-03-06T08:25:03.000Z,2.02
2023-03-06T08:30:03.000Z,2.13
2023-03-06T08:35:03.000Z,2.29
2023-03-06T08:40:03.000Z,2.53
2023-03-06T08:45:03.000Z,2.68
2023-03-06T08:50:03.000Z,2.68
2023-03-06T08:55:03.000Z,2.76
2023-03-06T09:00:03.000Z,2.90
2023-03-06T09:05:03.000Z,3.06
2023-03-06T09:10:03.000Z,3.19
2023-03-06T09:15:03.000Z,3.35
2023-03-06T09:20:03.000Z,3.56
2023-03-06T09:25:03.000Z,3.77
2023-03-06T09:30:03.000Z,4.02
2023-03-06T09:35:03.000Z,4.31
2023-03-06T09:40:03.000Z,4.89
2023-03-06T09:45:03.000Z,5.08
2023-03-06T09:50:04.000Z,5.06
2023-03-06T09:55:03.000Z,5.17
2023-03-06T10:00:03.000Z,5.33
2023-03-06T10:05:03.000Z,5.46
2023-03-06T10:10:03.000Z,5.64
2023-03-06T10:15:03.000Z,5.85
2023-03-06T10:20:03.000Z,6.01
2023-03-06T10:25:03.000Z,6.36
2023-03-06T10:30:03.000Z,7.13
2023-03-06T10:35:03.000Z,7.41
2023-03-06T10:40:03.000Z,7.73
2023-03-06T10:45:03.000Z,7.92
2023-03-06T10:50:03.000Z,7.93
2023-03-06T10:55:03.000Z,7.86
2023-03-06T11:00:03.000Z,8.24
2023-03-06T11:05:03.000Z,8.44
2023-03-06T11:10:03.000Z,8.49
2023-03-06T11:15:03.000Z,8.59
2023-03-06T11:20:03.000Z,8.73
2023-03-06T11:25:03.000Z,8.46
2023-03-06T11:30:03.000Z,8.35
2023-03-06T11:35:03.000Z,8.32
2023-03-06T11:40:03.000Z,8.28
2023-03-06T11:45:03.000Z,8.34
2023-03-06T11:50:03.000Z,8.36
2023-03-06T11:55:03.000Z,8.32
2023-03-06T12:00:03.000Z,8.18
2023-03-06T12:05:03.000Z,8.12
2023-03-06T12:15:03.000Z,8.49
2023-03-06T12:20:03.000Z,8.64
2023-03-06T12:25:03.000Z,8.72
2023-03-06T12:30:03.000Z,8.66
2023-03-06T12:35:03.000Z,8.65
2023-03-06T12:40:03.000Z,8.62
2023-03-06T12:45:04.000Z,8.56
2023-03-06T12:50:03.000Z,8.57
2023-03-06T12:55:03.000Z,8.73
2023-03-06T13:00:03.000Z,8.92
2023-03-06T13:05:03.000Z,8.90
2023-03-06T13:10:03.000Z,8.85
2023-03-06T13:15:03.000Z,8.76
2023-03-06T13:20:03.000Z,8.71
2023-03-06T13:25:03.000Z,8.47
2023-03-06T13:30:03.000Z,8.38
2023-03-06T13:35:03.000Z,8.27
2023-03-06T13:40:03.000Z,8.29
2023-03-06T13:45:03.000Z,8.23
2023-03-06T13:50:03.000Z,8.19
2023-03-06T13:55:04.000Z,8.18
2023-03-06T14:00:04.000Z,8.13
2023-03-06T14:05:03.000Z,8.24
2023-03-06T14:10:03.000Z,8.32
2023-03-06T14:15:03.000Z,8.60
2023-03-06T14:20:03.000Z,8.75
2023-03-06T14:25:03.000Z,8.77
2023-03-06T14:30:03.000Z,8.77
2023-03-06T14:35:04.000Z,8.75
2023-03-06T14:40:03.000Z,8.82
2023-03-06T14:45:03.000Z,8.61
2023-03-06T14:50:03.000Z,8.28
2023-03-06T14:55:03.000Z,8.09
2023-03-06T15:00:03.000Z,7.99
2023-03-06T15:05:04.000Z,7.84
2023-03-06T15:10:03.000Z,7.72
2023-03-06T15:15:04.000Z,7.55
2023-03-06T15:20:03.000Z,7.57
2023-03-06T15:25:03.000Z,7.54
2023-03-06T15:30:04.000Z,7.40
2023-03-06T15:35:04.000Z,7.34
2023-03-06T15:40:04.000Z,7.30
2023-03-06T15:45:03.000Z,7.30
2023-03-06T15:50:03.000Z,7.23
2023-03-06T15:55:04.000Z,7.15
2023-03-06T16:00:03.000Z,7.17
2023-03-06T16:05:03.000Z,7.05
2023-03-06T16:10:03.000Z,6.89
2023-03-06T16:15:03.000Z,6.89
2023-03-06T16:20:03.000Z,6.84
2023-03-06T16:25:04.000Z,6.74
2023-03-06T16:30:03.000Z,6.71
2023-03-06T16:35:03.000Z,6.61
2023-03-06T16:40:03.000Z,6.55
2023-03-06T16:45:03.000Z,6.45
2023-03-06T16:50:03.000Z,6.41
2023-03-06T16:55:03.000Z,6.30
2023-03-06T17:00:03.000Z,6.24
2023-03-06T17:05:03.000Z,6.19
2023-03-06T17:10:03.000Z,6.12
2023-03-06T17:15:03.000Z,6.02
2023-03-06T17:20:03.000Z,5.96
2023-03-06T17:25:03.000Z,5.94
2023-03-06T17:30:03.000Z,5.92
2023-03-06T17:35:04.000Z,5.81
2023-03-06T17:40:03.000Z,5.81
2023-03-06T17:45:03.000Z,5.80
2023-03-06T17:50:03.000Z,5.72
2023-03-06T17:55:03.000Z,5.67
2023-03-06T18:00:03.000Z,5.64
2023-03-06T18:05:04.000Z,5.60
2023-03-06T18:10:03.000Z,5.61
2023-03-06T18:15:03.000Z,5.62
2023-03-06T18:20:03.000Z,5.58
2023-03-06T18:25:03.000Z,5.56
2023-03-06T18:30:03.000Z,5.55
2023-03-06T18:35:03.000Z,5.51
2023-03-06T18:40:03.000Z,5.31
2023-03-06T18:45:04.000Z,5.47
2023-03-06T18:50:04.000Z,5.39
2023-03-06T18:55:03.000Z,5.42
2023-03-06T19:00:03.000Z,5.41
2023-03-06T19:05:03.000Z,5.37
2023-03-06T19:10:03.000Z,5.37
2023-03-06T19:15:03.000Z,5.37
2023-03-06T19:20:03.000Z,5.35
2023-03-06T19:25:04.000Z,5.28
2023-03-06T19:30:03.000Z,5.32
2023-03-06T19:35:03.000Z,5.33
2023-03-06T19:40:03.000Z,5.30
2023-03-06T19:45:04.000Z,5.27
2023-03-06T19:50:04.000Z,5.26
2023-03-06T19:55:04.000Z,5.25
2023-03-06T20:00:04.000Z,5.25
2023-03-06T20:05:04.000Z,5.22
2023-03-06T20:10:04.000Z,5.19
2023-03-06T20:15:04.000Z,5.19
2023-03-06T20:20:04.000Z,5.15
2023-03-06T20:25:04.000Z,5.11
2023-03-06T20:30:04.000Z,5.07
2023-03-06T20:35:04.000Z,5.05
2023-03-06T20:40:04.000Z,4.96
2023-03-06T20:45:04.000Z,4.92
2023-03-06T20:50:04.000Z,4.94
2023-03-06T20:55:04.000Z,4.91
2023-03-06T21:00:04.000Z,4.83
2023-03-06T21:05:04.000Z,4.80
2023-03-06T21:10:04.000Z,4.79
2023-03-06T21:15:04.000Z,4.78
2023-03-06T21:20:04.000Z,4.78
2023-03-06T21:25:04.000Z,4.73
2023-03-06T21:30:04.000Z,4.71
2023-03-06T21:35:04.000Z,4.71
2023-03-06T21:40:04.000Z,4.66
2023-03-06T21:45:04.000Z,4.60
2023-03-06T21:50:04.000Z,4.60
2023-03-06T21:55:04.000Z,4.60
2023-03-06T22:00:04.000Z,4.57
2023-03-06T22:05:04.000Z,4.49
2023-03-06T22:10:04.000Z,4.44
2023-03-06T22:15:04.000Z,4.35
2023-03-06T22:20:04.000Z,4.21
2023-03-06T22:25:04.000Z,4.17
2023-03-06T22:30:04.000Z,4.10
2023-03-06T22:35:04.000Z,4.04
2023-03-06T22:40:04.000Z,3.88
2023-03-06T22:45:04.000Z,3.75
2023-03-06T22:50:04.000Z,3.58
2023-03-06T22:55:04.000Z,3.56
2023-03-06T23:00:04.000Z,3.55
2023-03-06T23:05:04.000Z,3.47
2023-03-06T23:10:04.000Z,3.35
2023-03-06T23:15:04.000Z,3.35
2023-03-06T23:20:04.000Z,3.39
2023-03-06T23:25:04.000Z,3.36
2023-03-06T23:30:04.000Z,3.28
2023-03-06T23:35:04.000Z,3.17
2023-03-06T23:40:04.000Z,3.11
2023-03-06T23:45:04.000Z,3.06
2023-03-06T23:50:04.000Z,3.00
2023-03-06T23:55:04.000Z,2.96
